createdAt,value
2018-12-05T00:01:05.133Z,102116.14
2018-12-05T00:06:07.366Z,102122.59
2018-12-05T00:11:09.457Z,102122.84
2018-12-05T00:16:11.671Z,102123.20
2018-12-05T00:21:13.722Z,102123.01
2018-12-05T00:26:15.824Z,102117.47
2018-12-05T00:31:18.028Z,102119.81
2018-12-05T00:36:20.099Z,102124.38
2018-12-05T00:41:22.210Z,102128.68
2018-12-05T00:46:24.288Z,102129.92
2018-12-05T00:51:26.593Z,102133.94
2018-12-05T00:56:28.659Z,102136.80
2018-12-05T01:01:30.816Z,102136.92
2018-12-05T01:06:33.150Z,102143.22
2018-12-05T01:11:35.213Z,102154.45
2018-12-05T01:16:37.667Z,102165.10
2018-12-05T01:21:39.960Z,102173.57
2018-12-05T01:26:42.056Z,102173.97
2018-12-05T01:31:44.089Z,102166.34
2018-12-05T01:36:46.290Z,102163.84
2018-12-05T01:41:48.353Z,102173.72
2018-12-05T01:46:50.545Z,102175.02
2018-12-05T01:51:52.722Z,102173.59
2018-12-05T01:56:54.803Z,102172.25
2018-12-05T02:01:57.019Z,102173.96
2018-12-05T02:06:59.331Z,102182.40
2018-12-05T02:12:01.853Z,102180.28
2018-12-05T02:17:04.070Z,102186.64
2018-12-05T02:22:06.244Z,102182.04
2018-12-05T02:27:08.423Z,102178.14
2018-12-05T02:32:10.500Z,102181.86
2018-12-05T02:37:12.571Z,102179.44
2018-12-05T02:42:14.641Z,102163.75
2018-12-05T02:47:16.847Z,102162.78
2018-12-05T02:52:19.048Z,102155.70
2018-12-05T02:57:21.136Z,102149.27
2018-12-05T03:02:23.448Z,102163.95
2018-12-05T03:07:25.533Z,102159.54
2018-12-05T03:12:27.601Z,102167.94
2018-12-05T03:17:29.672Z,102166.76
2018-12-05T03:22:31.723Z,102170.11
2018-12-05T03:27:33.780Z,102179.86
2018-12-05T03:32:35.888Z,102176.51
2018-12-05T03:37:37.969Z,102175.84
2018-12-05T03:42:40.071Z,102182.25
2018-12-05T03:47:42.253Z,102191.38
2018-12-05T03:52:44.459Z,102198.93
2018-12-05T03:57:46.553Z,102200.25
2018-12-05T04:02:48.638Z,102195.80
2018-12-05T04:07:50.714Z,102203.03
2018-12-05T04:12:52.803Z,102195.63
2018-12-05T04:17:54.867Z,102197.36
2018-12-05T04:22:56.958Z,102208.23
2018-12-05T04:27:59.135Z,102205.02
2018-12-05T04:33:01.222Z,102205.12
2018-12-05T04:38:03.575Z,102204.99
2018-12-05T04:43:05.648Z,102207.26
2018-12-05T04:48:07.748Z,102200.68
2018-12-05T04:53:09.856Z,102204.23
2018-12-05T04:58:12.025Z,102211.21
2018-12-05T05:03:14.226Z,102209.97
2018-12-05T05:08:16.293Z,102222.65
2018-12-05T05:13:18.372Z,102224.69
2018-12-05T05:18:20.544Z,102221.17
2018-12-05T05:23:22.611Z,102226.97
2018-12-05T05:28:24.699Z,102224.62
2018-12-05T05:33:26.767Z,102229.02
2018-12-05T05:38:28.872Z,102233.73
2018-12-05T05:43:30.948Z,102228.17
2018-12-05T05:48:33.017Z,102231.51
2018-12-05T05:53:35.229Z,102240.47
2018-12-05T05:58:37.308Z,102247.13
2018-12-05T06:03:39.525Z,102241.77
2018-12-05T06:08:41.608Z,102242.20
2018-12-05T06:13:43.690Z,102248.41
2018-12-05T06:18:45.876Z,102246.30
2018-12-05T06:23:47.928Z,102241.88
2018-12-05T06:28:50.112Z,102250.39
2018-12-05T06:33:52.181Z,102244.52
2018-12-05T06:38:54.247Z,102237.52
2018-12-05T06:43:56.438Z,102245.86
2018-12-05T06:48:58.623Z,102252.26
2018-12-05T06:54:00.805Z,102263.39
2018-12-05T06:59:02.897Z,102266.84
2018-12-05T07:04:05.216Z,102272.34
2018-12-05T07:09:08.441Z,102269.97
2018-12-05T07:14:10.517Z,102268.72
2018-12-05T07:19:12.698Z,102266.69
2018-12-05T07:24:14.772Z,102265.52
2018-12-05T07:29:16.989Z,102261.96
2018-12-05T07:34:19.107Z,102261.69
2018-12-05T07:39:21.166Z,102259.41
2018-12-05T07:44:23.438Z,102258.88
2018-12-05T07:49:25.525Z,102257.00
2018-12-05T07:54:27.603Z,102269.17
2018-12-05T07:59:29.684Z,102273.69
2018-12-05T08:04:31.919Z,102285.02
2018-12-05T08:09:34.028Z,102286.92
2018-12-05T08:14:36.108Z,102290.28
2018-12-05T08:19:38.307Z,102295.38
2018-12-05T08:24:40.401Z,102294.91
2018-12-05T08:29:42.572Z,102300.45
2018-12-05T08:34:44.680Z,102300.40
2018-12-05T08:39:46.800Z,102299.12
2018-12-05T08:44:48.901Z,102298.16
2018-12-05T08:49:51.014Z,102296.32
2018-12-05T08:54:53.632Z,102293.64
2018-12-05T08:59:55.709Z,102288.08
2018-12-05T09:04:57.961Z,102290.79
2018-12-05T09:10:00.142Z,102295.70
2018-12-05T09:15:02.467Z,102297.39
2018-12-05T09:20:05.313Z,102293.20
2018-12-05T09:25:07.622Z,102297.66
2018-12-05T09:30:09.920Z,102298.23
2018-12-05T09:35:12.109Z,102295.14
2018-12-05T09:40:14.402Z,102289.78
2018-12-05T09:45:16.504Z,102288.69
2018-12-05T09:50:18.841Z,102293.52
2018-12-05T09:55:20.955Z,102298.15
2018-12-05T10:00:23.053Z,102291.20
2018-12-05T10:05:25.173Z,102286.42
2018-12-05T10:10:27.256Z,102285.22
2018-12-05T10:15:29.459Z,102274.52
2018-12-05T10:20:31.733Z,102277.37
2018-12-05T10:25:33.925Z,102271.54
2018-12-05T10:30:36.037Z,102264.01
2018-12-05T10:35:38.131Z,102270.67
2018-12-05T10:40:40.263Z,102262.62
2018-12-05T10:45:42.313Z,102257.97
2018-12-05T10:50:44.500Z,102261.31
2018-12-05T10:55:46.715Z,102245.67
2018-12-05T11:00:54.804Z,102241.06
2018-12-05T11:06:02.732Z,102234.94
2018-12-05T11:11:10.613Z,102231.06
2018-12-05T11:16:18.284Z,102220.55
2018-12-05T11:21:26.197Z,102225.82
2018-12-05T11:26:31.366Z,102216.64
2018-12-05T11:31:33.467Z,102218.80
2018-12-05T11:36:35.572Z,102212.13
2018-12-05T11:41:38.021Z,102207.59
2018-12-05T11:46:40.129Z,102210.45
2018-12-05T11:51:42.352Z,102199.44
2018-12-05T11:56:44.448Z,102204.92
2018-12-05T12:01:46.450Z,102187.29
2018-12-05T12:06:48.593Z,102188.82
2018-12-05T12:11:51.138Z,102188.83
2018-12-05T12:16:53.443Z,102186.47
2018-12-05T12:21:55.658Z,102180.70
2018-12-05T12:26:57.736Z,102182.17
2018-12-05T12:31:59.929Z,102177.80
2018-12-05T12:37:02.085Z,102174.66
2018-12-05T12:42:04.264Z,102162.42
2018-12-05T12:47:07.576Z,102159.80
2018-12-05T12:52:09.671Z,102158.16
2018-12-05T12:57:11.765Z,102161.67
2018-12-05T13:02:13.972Z,102155.61
2018-12-05T13:07:16.103Z,102142.65
2018-12-05T13:12:23.978Z,102146.27
2018-12-05T13:17:26.214Z,102140.61
2018-12-05T13:22:28.391Z,102137.26
2018-12-05T13:27:30.633Z,102132.09
2018-12-05T13:32:32.705Z,102116.73
2018-12-05T13:37:35.000Z,102109.48
2018-12-05T13:42:37.208Z,102108.08
2018-12-05T13:47:39.441Z,102105.72
2018-12-05T13:52:41.664Z,102094.31
2018-12-05T13:57:44.080Z,102086.66
2018-12-05T14:02:46.161Z,102084.12
2018-12-05T14:07:48.275Z,102085.39
2018-12-05T14:12:50.382Z,102078.42
2018-12-05T14:17:52.433Z,102073.41
2018-12-05T14:22:54.658Z,102064.62
2018-12-05T14:27:56.858Z,102052.51
2018-12-05T14:32:58.953Z,102047.59
2018-12-05T14:38:01.176Z,102040.55
2018-12-05T14:43:03.400Z,102039.28
2018-12-05T14:48:05.646Z,102045.38
2018-12-05T14:53:07.799Z,102039.37
2018-12-05T14:58:09.889Z,102024.53
2018-12-05T15:03:11.984Z,102017.06
2018-12-05T15:08:14.112Z,102007.93
2018-12-05T15:13:16.203Z,102003.48
2018-12-05T15:18:18.332Z,101998.92
2018-12-05T15:23:20.469Z,102000.13
2018-12-05T15:28:22.709Z,101998.15
2018-12-05T15:33:24.806Z,101990.36
2018-12-05T15:38:26.900Z,101983.84
2018-12-05T15:43:29.028Z,101979.47
2018-12-05T15:48:31.155Z,101969.44
2018-12-05T15:53:33.316Z,101969.88
2018-12-05T15:58:35.424Z,101963.70
2018-12-05T16:03:43.149Z,101947.67
2018-12-05T16:08:41.716Z,101948.50
2018-12-05T16:13:44.075Z,101947.85
2018-12-05T16:18:46.198Z,101936.99
2018-12-05T16:23:48.334Z,101926.55
2018-12-05T16:28:50.425Z,101916.66
2018-12-05T16:33:52.553Z,101917.70
2018-12-05T16:38:54.693Z,101912.61
2018-12-05T16:43:56.966Z,101900.16
2018-12-05T16:48:59.078Z,101884.84
2018-12-05T16:54:01.199Z,101887.20
2018-12-05T16:59:03.316Z,101874.70
2018-12-05T17:04:05.554Z,101870.89
2018-12-05T17:09:07.983Z,101870.91
2018-12-05T17:14:10.137Z,101871.91
2018-12-05T17:19:12.273Z,101854.33
2018-12-05T17:24:14.401Z,101840.27
2018-12-05T17:29:16.528Z,101840.24
2018-12-05T17:34:18.749Z,101839.41
2018-12-05T17:39:21.117Z,101833.49
2018-12-05T17:44:23.226Z,101824.28
2018-12-05T17:49:25.322Z,101828.82
2018-12-05T17:54:27.568Z,101818.21
2018-12-05T17:59:29.694Z,101817.09
2018-12-05T18:04:31.839Z,101810.56
2018-12-05T18:09:34.000Z,101804.50
2018-12-05T18:14:36.113Z,101790.41
2018-12-05T18:19:38.223Z,101792.76
2018-12-05T18:24:40.477Z,101786.41
2018-12-05T18:29:42.581Z,101770.66
2018-12-05T18:34:44.765Z,101764.12
2018-12-05T18:39:46.983Z,101752.73
2018-12-05T18:44:49.127Z,101746.20
2018-12-05T18:49:51.226Z,101739.47
2018-12-05T18:54:53.569Z,101729.56
2018-12-05T19:00:01.341Z,101718.41
2018-12-05T19:05:00.073Z,101706.81
2018-12-05T19:10:03.475Z,101697.98
2018-12-05T19:15:06.082Z,101696.72
2018-12-05T19:20:08.384Z,101692.88
2018-12-05T19:25:11.018Z,101692.50
2018-12-05T19:30:13.267Z,101687.63
2018-12-05T19:35:15.447Z,101686.98
2018-12-05T19:40:17.828Z,101674.41
2018-12-05T19:45:21.852Z,101674.65
2018-12-05T19:50:26.858Z,101663.05
2018-12-05T19:55:29.956Z,101658.06
2018-12-05T20:00:32.411Z,101652.22
2018-12-05T20:05:37.471Z,101644.84
2018-12-05T20:10:43.242Z,101634.98
2018-12-05T20:15:48.317Z,101635.95
2018-12-05T20:20:53.722Z,101623.63
2018-12-05T20:25:59.616Z,101617.48
2018-12-05T20:31:05.291Z,101608.88
2018-12-05T20:36:10.630Z,101598.68
2018-12-05T20:41:14.201Z,101585.06
2018-12-05T20:46:19.400Z,101574.58
2018-12-05T20:51:22.357Z,101564.23
2018-12-05T20:56:27.521Z,101564.11
2018-12-05T21:01:32.599Z,101561.95
2018-12-05T21:06:36.365Z,101555.53
2018-12-05T21:11:39.520Z,101560.56
2018-12-05T21:16:42.267Z,101565.22
2018-12-05T21:21:44.601Z,101546.98
2018-12-05T21:26:46.811Z,101546.47
2018-12-05T21:31:49.075Z,101537.17
2018-12-05T21:36:51.171Z,101525.54
2018-12-05T21:41:54.025Z,101513.28
2018-12-05T21:46:56.374Z,101516.19
2018-12-05T21:51:58.609Z,101496.39
2018-12-05T21:57:00.726Z,101497.79
2018-12-05T22:02:02.848Z,101489.98
2018-12-05T22:07:05.082Z,101486.97
2018-12-05T22:12:07.185Z,101485.20
2018-12-05T22:17:09.276Z,101481.92
2018-12-05T22:22:11.387Z,101481.94
2018-12-05T22:27:13.493Z,101481.76
2018-12-05T22:32:15.671Z,101464.60
2018-12-05T22:37:17.883Z,101456.39
2018-12-05T22:42:20.015Z,101443.91
2018-12-05T22:47:22.078Z,101437.42
2018-12-05T22:52:24.295Z,101432.36
2018-12-05T22:57:26.396Z,101419.01
2018-12-05T23:02:28.592Z,101410.49
2018-12-05T23:07:30.707Z,101403.00
2018-12-05T23:12:32.848Z,101392.61
2018-12-05T23:17:34.943Z,101395.21
2018-12-05T23:22:37.294Z,101377.77
2018-12-05T23:27:39.494Z,101368.90
2018-12-05T23:32:41.581Z,101351.28
2018-12-05T23:37:44.097Z,101354.70
2018-12-05T23:42:47.717Z,101335.09
2018-12-05T23:47:49.793Z,101316.55
2018-12-05T23:52:51.865Z,101305.20
2018-12-05T23:57:54.027Z,101301.55
